Time;durP1;ratioP1;P1;durP2;ratioP2;P2;SDS_P1;SDS_P2;PMS_P1;PMS_P2;Temp;Humidity;BMP_temperature;BMP_pressure;BME280_temperature;BME280_humidity;BME280_pressure;Samples;Min_cycle;Max_cycle;Signal;HPM_P1;HPM_P2
2023/01/05 00:01:33;;;;;;;;;;;10.00;99.90;;;;;;5053267;28;1519;-73
2023/01/05 00:04:00;;;;;;;;;;;10.00;99.90;;;;;;5053256;28;1298;-73
2023/01/05 00:06:28;;;;;;;;;;;10.00;99.90;;;;;;5054078;28;1079;-72
2023/01/05 00:08:57;;;;;;;;;;;10.00;99.90;;;;;;5053731;28;1099;-73
2023/01/05 00:22:31;;;;;;;;;;;10.10;99.90;;;;;;5053565;28;1025;-73
2023/01/05 00:25:01;;;;;;;;;;;10.10;99.90;;;;;;5053208;28;1458;-74
2023/01/05 00:27:38;;;;;;;;;;;10.10;99.90;;;;;;5053824;28;1016;-73
2023/01/05 00:30:07;;;;;;;;;;;10.10;99.90;;;;;;5051579;28;1555;-71
2023/01/05 00:32:34;;;;;;;;;;;10.10;99.90;;;;;;5052557;28;989;-73
2023/01/05 00:35:02;;;;;;;;;;;10.10;99.90;;;;;;5052813;28;1450;-73
2023/01/05 00:37:31;;;;;;;;;;;10.10;99.90;;;;;;5053510;28;1992;-72
2023/01/05 00:40:00;;;;;;;;;;;10.00;99.90;;;;;;5053106;28;1213;-72
2023/01/05 00:42:27;;;;;;;;;;;10.00;99.90;;;;;;5054228;28;1112;-72
2023/01/05 00:44:55;;;;;;;;;;;10.10;99.90;;;;;;5053186;28;1394;-72
2023/01/05 00:47:23;;;;;;;;;;;10.10;99.90;;;;;;5051282;28;1910;-72
2023/01/05 00:49:50;;;;;;;;;;;10.00;99.90;;;;;;5051886;28;2082;-71
2023/01/05 00:52:18;;;;;;;;;;;10.00;99.90;;;;;;5053585;28;957;-71
2023/01/05 00:54:45;;;;;;;;;;;10.20;99.90;;;;;;5054222;28;1294;-71
2023/01/05 00:57:14;;;;;;;;;;;10.10;99.90;;;;;;5053135;28;1919;-73
2023/01/05 00:59:42;;;;;;;;;;;10.20;99.90;;;;;;5052061;28;1052;-71
2023/01/05 01:02:10;;;;;;;;;;;10.20;99.90;;;;;;5051876;28;1410;-72
2023/01/05 01:04:38;;;;;;;;;;;10.10;99.90;;;;;;5051950;28;1357;-72
2023/01/05 01:07:06;;;;;;;;;;;10.10;99.90;;;;;;5052742;28;1369;-72
2023/01/05 01:09:33;;;;;;;;;;;10.00;99.90;;;;;;5052817;28;1079;-73
2023/01/05 01:12:01;;;;;;;;;;;10.10;99.90;;;;;;5052141;28;1080;-72
2023/01/05 01:14:30;;;;;;;;;;;10.10;99.90;;;;;;5056719;28;1367;-73
2023/01/05 01:16:59;;;;;;;;;;;10.20;99.90;;;;;;5060999;28;1910;-73
2023/01/05 01:19:27;;;;;;;;;;;10.10;99.90;;;;;;5063206;28;1488;-73
2023/01/05 01:21:55;;;;;;;;;;;10.00;99.90;;;;;;5060502;28;1175;-72
2023/01/05 01:24:23;;;;;;;;;;;10.00;99.90;;;;;;5057144;28;1312;-73
2023/01/05 01:26:51;;;;;;;;;;;10.10;99.90;;;;;;5057205;28;1499;-73
2023/01/05 01:29:20;;;;;;;;;;;10.00;99.90;;;;;;5056031;28;1116;-72
2023/01/05 01:31:51;;;;;;;;;;;10.10;99.90;;;;;;5055191;28;1947;-73
2023/01/05 01:34:19;;;;;;;;;;;10.00;99.90;;;;;;5055940;28;1453;-73
2023/01/05 01:36:47;;;;;;;;;;;9.90;99.90;;;;;;5065473;28;1271;-73
2023/01/05 01:39:14;;;;;;;;;;;9.90;99.90;;;;;;5059521;28;1914;-73
2023/01/05 01:41:42;;;;;;;;;;;10.00;99.90;;;;;;5055947;28;1236;-73
2023/01/05 01:44:28;;;;;;;;;;;10.00;99.90;;;;;;5055219;28;1293;-73
2023/01/05 01:46:57;;;;;;;;;;;10.00;99.90;;;;;;5056611;28;1061;-72
2023/01/05 01:49:25;;;;;;;;;;;9.90;99.90;;;;;;5056700;28;1067;-73
2023/01/05 01:51:53;;;;;;;;;;;9.90;99.90;;;;;;5056572;28;1184;-72
2023/01/05 01:54:20;;;;;;;;;;;9.80;99.90;;;;;;5055811;28;1321;-72
2023/01/05 01:56:52;;;;;;;;;;;9.80;99.90;;;;;;5050063;28;1172;-73
2023/01/05 01:59:19;;;;;;;;;;;9.80;99.90;;;;;;5056312;28;1910;-72
2023/01/05 02:01:49;;;;;;;;;;;9.80;99.90;;;;;;5056382;28;1128;-74
2023/01/05 02:04:19;;;;;;;;;;;9.80;99.90;;;;;;5056014;28;1323;-73
2023/01/05 02:06:48;;;;;;;;;;;9.80;99.90;;;;;;5055630;28;1072;-72
2023/01/05 02:09:15;;;;;;;;;;;9.80;99.90;;;;;;5055511;28;1063;-72
2023/01/05 02:11:46;;;;;;;;;;;9.80;99.90;;;;;;5054217;28;1733;-73
2023/01/05 02:14:20;;;;;;;;;;;9.80;99.90;;;;;;5054650;28;1349;-74
2023/01/05 02:16:53;;;;;;;;;;;9.70;99.90;;;;;;5054924;28;973;-71
2023/01/05 02:19:50;;;;;;;;;;;9.70;99.90;;;;;;5053625;28;1962;-74
2023/01/05 02:22:26;;;;;;;;;;;9.80;99.90;;;;;;5054505;28;1065;-72
2023/01/05 02:25:07;;;;;;;;;;;9.70;99.90;;;;;;5055965;28;1357;-72
2023/01/05 02:27:40;;;;;;;;;;;9.70;99.90;;;;;;5056567;28;1013;-75
2023/01/05 02:30:27;;;;;;;;;;;9.70;99.90;;;;;;5057629;28;985;-73
2023/01/05 02:33:00;;;;;;;;;;;9.70;99.90;;;;;;5056127;28;1071;-74
2023/01/05 02:35:31;;;;;;;;;;;9.60;99.90;;;;;;5055788;28;1461;-74
2023/01/05 02:38:01;;;;;;;;;;;9.60;99.90;;;;;;5056002;28;2066;-76
2023/01/05 02:40:31;;;;;;;;;;;9.70;99.90;;;;;;5056321;28;972;-73
2023/01/05 02:43:00;;;;;;;;;;;9.70;99.90;;;;;;5053929;28;1451;-73
2023/01/05 02:45:29;;;;;;;;;;;9.60;99.90;;;;;;5060415;28;1374;-75
2023/01/05 02:48:00;;;;;;;;;;;9.50;99.90;;;;;;5066056;28;1001;-75
2023/01/05 02:50:33;;;;;;;;;;;9.60;99.90;;;;;;5064571;28;1239;-75
2023/01/05 02:53:05;;;;;;;;;;;9.50;99.90;;;;;;5054084;28;1056;-73
2023/01/05 02:55:38;;;;;;;;;;;9.40;99.90;;;;;;5055658;28;1368;-74
2023/01/05 02:58:07;;;;;;;;;;;9.40;99.90;;;;;;5052906;28;1914;-75
2023/01/05 03:00:42;;;;;;;;;;;9.40;99.90;;;;;;5054549;28;2057;-73
2023/01/05 03:03:13;;;;;;;;;;;9.40;99.90;;;;;;5054534;28;1665;-74
2023/01/05 03:05:44;;;;;;;;;;;9.30;99.90;;;;;;5063442;28;1354;-74
2023/01/05 03:08:21;;;;;;;;;;;9.30;99.90;;;;;;5060234;28;1979;-74
2023/01/05 03:13:46;;;;;;;;;;;9.30;99.90;;;;;;5053670;28;1471;-74
2023/01/05 03:16:16;;;;;;;;;;;9.30;99.90;;;;;;5053310;28;1686;-74
2023/01/05 03:35:32;;;;;;;;;;;9.20;99.90;;;;;;5059432;28;1597;-74
2023/01/05 03:38:03;;;;;;;;;;;9.30;99.90;;;;;;5072766;28;1995;-75
2023/01/05 03:40:32;;;;;;;;;;;9.20;99.90;;;;;;5075100;28;1163;-74
2023/01/05 03:43:00;;;;;;;;;;;9.20;99.90;;;;;;5076458;28;1240;-75
2023/01/05 03:45:32;;;;;;;;;;;9.20;99.90;;;;;;5077497;28;1386;-73
2023/01/05 03:48:00;;;;;;;;;;;9.20;99.90;;;;;;5074760;28;1379;-75
2023/01/05 03:50:29;;;;;;;;;;;9.30;99.90;;;;;;5068806;28;1443;-73
2023/01/05 03:52:56;;;;;;;;;;;9.20;99.90;;;;;;5068772;28;1140;-75
2023/01/05 03:55:24;;;;;;;;;;;9.30;99.90;;;;;;5072926;28;1256;-73
2023/01/05 03:57:52;;;;;;;;;;;9.30;99.90;;;;;;5069178;28;1186;-74
2023/01/05 04:00:21;;;;;;;;;;;9.30;99.90;;;;;;5076571;28;1960;-74
2023/01/05 04:02:48;;;;;;;;;;;9.30;99.90;;;;;;5055003;28;966;-75
2023/01/05 04:05:16;;;;;;;;;;;9.20;99.90;;;;;;5054368;28;1282;-75
2023/01/05 04:07:45;;;;;;;;;;;9.20;99.90;;;;;;5052547;28;1518;-75
2023/01/05 04:10:13;;;;;;;;;;;9.10;99.90;;;;;;5053030;28;1065;-75
2023/01/05 04:12:40;;;;;;;;;;;9.00;99.90;;;;;;5053828;28;1523;-75
2023/01/05 04:15:09;;;;;;;;;;;9.00;99.90;;;;;;5054003;28;1376;-74
2023/01/05 04:17:36;;;;;;;;;;;8.90;99.90;;;;;;5056965;28;1024;-74
2023/01/05 04:20:05;;;;;;;;;;;8.80;99.90;;;;;;5052750;28;1910;-75
2023/01/05 04:22:33;;;;;;;;;;;8.80;99.90;;;;;;5055179;28;1037;-73
2023/01/05 04:25:02;;;;;;;;;;;8.80;99.90;;;;;;5053376;28;1344;-73
2023/01/05 04:27:29;;;;;;;;;;;8.70;99.90;;;;;;5051820;28;1036;-75
2023/01/05 04:29:57;;;;;;;;;;;8.70;99.90;;;;;;5053639;28;1389;-75
2023/01/05 04:32:25;;;;;;;;;;;8.60;99.90;;;;;;5053295;28;1079;-75
2023/01/05 04:34:52;;;;;;;;;;;8.60;99.90;;;;;;5053884;28;1299;-73
2023/01/05 04:37:20;;;;;;;;;;;8.60;99.90;;;;;;5053042;28;2185;-74
2023/01/05 04:39:47;;;;;;;;;;;8.60;99.90;;;;;;5053031;28;1996;-73
2023/01/05 04:42:16;;;;;;;;;;;8.50;99.90;;;;;;5058458;28;1112;-74
2023/01/05 04:44:44;;;;;;;;;;;8.50;99.90;;;;;;5056829;28;1248;-72
2023/01/05 04:47:11;;;;;;;;;;;8.40;99.90;;;;;;5053653;28;1666;-72
2023/01/05 04:49:39;;;;;;;;;;;8.40;99.90;;;;;;5053252;28;1008;-74
2023/01/05 04:52:07;;;;;;;;;;;8.30;99.90;;;;;;5051742;28;1512;-74
2023/01/05 04:54:37;;;;;;;;;;;8.30;99.90;;;;;;5053244;28;1611;-74
2023/01/05 04:57:04;;;;;;;;;;;8.40;99.90;;;;;;5053035;28;1119;-74
2023/01/05 04:59:33;;;;;;;;;;;8.30;99.90;;;;;;5053314;28;1989;-74
2023/01/05 05:02:01;;;;;;;;;;;8.40;99.90;;;;;;5053201;28;1127;-75
2023/01/05 05:04:29;;;;;;;;;;;8.30;99.90;;;;;;5053660;28;1292;-76
2023/01/05 05:06:56;;;;;;;;;;;8.40;99.90;;;;;;5052537;28;981;-73
2023/01/05 05:09:24;;;;;;;;;;;8.50;99.90;;;;;;5052149;28;1068;-74
2023/01/05 05:11:52;;;;;;;;;;;8.30;99.90;;;;;;5053059;28;2110;-75
2023/01/05 05:14:19;;;;;;;;;;;8.40;99.90;;;;;;5054322;28;1397;-73
2023/01/05 05:16:48;;;;;;;;;;;8.40;99.90;;;;;;5060854;28;2094;-72
2023/01/05 05:19:16;;;;;;;;;;;8.60;99.90;;;;;;5057720;28;2238;-71
2023/01/05 05:21:43;;;;;;;;;;;8.50;99.90;;;;;;5052328;28;2133;-73
2023/01/05 05:24:11;;;;;;;;;;;8.60;99.90;;;;;;5053279;28;1270;-72
2023/01/05 05:26:39;;;;;;;;;;;8.60;99.90;;;;;;5051664;28;2149;-72
2023/01/05 05:29:06;;;;;;;;;;;8.60;99.90;;;;;;5052586;28;1139;-72
2023/01/05 05:31:34;;;;;;;;;;;8.70;99.90;;;;;;5051460;28;2130;-72
2023/01/05 05:34:03;;;;;;;;;;;8.50;99.90;;;;;;5052882;28;1520;-73
2023/01/05 05:36:31;;;;;;;;;;;8.60;99.90;;;;;;5052294;28;1092;-74
2023/01/05 05:38:59;;;;;;;;;;;8.60;99.90;;;;;;5052559;28;1528;-71
2023/01/05 05:41:26;;;;;;;;;;;8.60;99.90;;;;;;5051133;28;1984;-71
2023/01/05 05:43:56;;;;;;;;;;;8.60;99.90;;;;;;5052677;28;1426;-71
2023/01/05 05:46:24;;;;;;;;;;;8.60;99.90;;;;;;5052731;28;1088;-74
2023/01/05 05:48:52;;;;;;;;;;;8.60;99.90;;;;;;5052747;28;1071;-72
2023/01/05 05:51:21;;;;;;;;;;;8.60;99.90;;;;;;5051508;28;2082;-72
2023/01/05 05:53:49;;;;;;;;;;;8.60;99.90;;;;;;5051820;28;1341;-72
2023/01/05 05:56:17;;;;;;;;;;;8.60;99.90;;;;;;5049911;28;1915;-74
2023/01/05 05:58:45;;;;;;;;;;;8.60;99.90;;;;;;5052591;28;2074;-76
2023/01/05 06:01:12;;;;;;;;;;;8.60;99.90;;;;;;5068217;28;1883;-73
2023/01/05 06:03:40;;;;;;;;;;;8.60;99.90;;;;;;5060861;28;1163;-72
2023/01/05 06:06:08;;;;;;;;;;;8.60;99.90;;;;;;5054924;28;1179;-72
2023/01/05 06:08:38;;;;;;;;;;;8.60;99.90;;;;;;5051108;28;1782;-72
2023/01/05 06:11:06;;;;;;;;;;;8.60;99.90;;;;;;5049151;28;2493;-70
2023/01/05 06:13:35;;;;;;;;;;;8.60;99.90;;;;;;5054181;28;1996;-71
2023/01/05 06:16:03;;;;;;;;;;;8.60;99.90;;;;;;5054485;28;1389;-71
2023/01/05 06:18:31;;;;;;;;;;;8.60;99.90;;;;;;5055313;28;1075;-73
2023/01/05 06:20:59;;;;;;;;;;;8.60;99.90;;;;;;5054571;28;1910;-73
2023/01/05 06:23:28;;;;;;;;;;;8.60;99.90;;;;;;5055015;28;1053;-72
2023/01/05 06:25:57;;;;;;;;;;;8.60;99.90;;;;;;5055506;28;1360;-72
2023/01/05 06:28:25;;;;;;;;;;;8.60;99.90;;;;;;5052959;28;1258;-72
2023/01/05 06:30:53;;;;;;;;;;;8.60;99.90;;;;;;5054839;28;1221;-72
2023/01/05 06:33:21;;;;;;;;;;;8.60;99.90;;;;;;5055381;28;1112;-72
2023/01/05 06:35:48;;;;;;;;;;;8.60;99.90;;;;;;5055615;28;1284;-73
2023/01/05 06:38:16;;;;;;;;;;;8.70;99.90;;;;;;5055013;28;1264;-73
2023/01/05 06:40:46;;;;;;;;;;;8.70;99.90;;;;;;5055316;28;1902;-72
2023/01/05 06:43:15;;;;;;;;;;;8.60;99.90;;;;;;5054965;28;1495;-73
2023/01/05 06:45:42;;;;;;;;;;;8.60;99.90;;;;;;5054936;28;1401;-73
2023/01/05 06:48:10;;;;;;;;;;;8.60;99.90;;;;;;5055397;28;1012;-72
2023/01/05 06:50:38;;;;;;;;;;;8.60;99.90;;;;;;5054218;28;1299;-72
2023/01/05 06:53:06;;;;;;;;;;;8.70;99.90;;;;;;5055081;28;985;-72
2023/01/05 06:55:33;;;;;;;;;;;8.70;99.90;;;;;;5055151;28;1340;-73
2023/01/05 06:58:01;;;;;;;;;;;8.70;99.90;;;;;;5056515;28;1500;-73
2023/01/05 07:00:31;;;;;;;;;;;8.60;99.90;;;;;;5055155;28;1957;-72
2023/01/05 07:02:59;;;;;;;;;;;8.60;99.90;;;;;;5054825;28;1020;-73
2023/01/05 07:05:26;;;;;;;;;;;8.70;99.90;;;;;;5054788;28;2123;-72
2023/01/05 07:07:55;;;;;;;;;;;8.70;99.90;;;;;;5054667;28;2046;-73
2023/01/05 07:10:23;;;;;;;;;;;8.70;99.90;;;;;;5054129;28;2166;-73
2023/01/05 07:12:50;;;;;;;;;;;8.70;99.90;;;;;;5052110;28;1467;-73
2023/01/05 07:15:18;;;;;;;;;;;8.70;99.90;;;;;;5053426;28;2022;-73
2023/01/05 07:17:47;;;;;;;;;;;8.70;99.90;;;;;;5054539;28;1047;-74
2023/01/05 07:20:15;;;;;;;;;;;8.70;99.90;;;;;;5053876;28;2130;-74
2023/01/05 07:22:42;;;;;;;;;;;8.80;99.90;;;;;;5054275;28;1055;-74
2023/01/05 07:25:10;;;;;;;;;;;8.80;99.90;;;;;;5054102;28;1306;-73
2023/01/05 07:27:38;;;;;;;;;;;8.80;99.90;;;;;;5058956;28;2082;-80
2023/01/05 07:30:06;;;;;;;;;;;8.80;99.90;;;;;;5058195;28;1720;-77
2023/01/05 07:32:34;;;;;;;;;;;8.80;99.90;;;;;;5058459;28;1132;-80
2023/01/05 07:35:04;;;;;;;;;;;8.70;99.90;;;;;;5056551;28;1343;-75
2023/01/05 07:37:32;;;;;;;;;;;8.80;99.90;;;;;;5057951;28;1479;-78
2023/01/05 07:39:59;;;;;;;;;;;8.80;99.90;;;;;;5062473;28;1567;-78
2023/01/05 07:42:27;;;;;;;;;;;8.80;99.90;;;;;;5059595;28;1981;-80
2023/01/05 07:44:57;;;;;;;;;;;8.90;99.90;;;;;;5061026;28;1623;-77
2023/01/05 07:47:24;;;;;;;;;;;8.80;99.90;;;;;;5054430;28;1060;-79
2023/01/05 07:49:52;;;;;;;;;;;8.90;99.90;;;;;;5056030;28;1703;-79
2023/01/05 07:52:21;;;;;;;;;;;8.80;99.90;;;;;;5053635;28;1530;-74
2023/01/05 07:54:49;;;;;;;;;;;8.90;99.90;;;;;;5053048;28;1310;-72
2023/01/05 07:57:16;;;;;;;;;;;8.90;99.90;;;;;;5053983;28;878;-72
2023/01/05 07:59:44;;;;;;;;;;;8.80;99.90;;;;;;5050892;28;1965;-74
2023/01/05 08:02:12;;;;;;;;;;;8.70;99.90;;;;;;5054113;28;1910;-73
2023/01/05 08:04:39;;;;;;;;;;;8.70;99.90;;;;;;5050952;28;2161;-74
2023/01/05 08:07:10;;;;;;;;;;;8.70;99.90;;;;;;5051178;28;2046;-70
2023/01/05 08:12:24;;;;;;;;;;;8.70;99.90;;;;;;5060628;28;1936;-71
2023/01/05 08:14:52;;;;;;;;;;;8.80;99.90;;;;;;5054617;28;2082;-73
2023/01/05 08:17:19;;;;;;;;;;;8.90;99.90;;;;;;5053468;28;1738;-72
2023/01/05 08:19:47;;;;;;;;;;;8.80;99.90;;;;;;5051448;28;1951;-73
2023/01/05 08:22:15;;;;;;;;;;;8.90;99.90;;;;;;5050331;28;1989;-73
2023/01/05 08:24:44;;;;;;;;;;;8.90;99.90;;;;;;5053374;28;1685;-72
2023/01/05 08:27:11;;;;;;;;;;;8.80;99.90;;;;;;5051085;28;2082;-72
2023/01/05 08:29:39;;;;;;;;;;;8.70;99.90;;;;;;5053228;28;1956;-73
2023/01/05 08:32:07;;;;;;;;;;;8.80;99.90;;;;;;5053340;28;1975;-74
2023/01/05 08:34:35;;;;;;;;;;;8.80;99.90;;;;;;5052796;28;1362;-73
2023/01/05 08:37:03;;;;;;;;;;;8.70;99.90;;;;;;5051907;28;1607;-75
2023/01/05 08:39:30;;;;;;;;;;;8.50;99.90;;;;;;5052796;28;2253;-73
2023/01/05 08:42:01;;;;;;;;;;;8.30;99.90;;;;;;5052896;28;1910;-73
2023/01/05 08:44:29;;;;;;;;;;;8.20;99.90;;;;;;5051988;28;1645;-73
2023/01/05 08:46:57;;;;;;;;;;;8.10;99.90;;;;;;5051755;28;2112;-72
2023/01/05 08:49:25;;;;;;;;;;;8.20;99.90;;;;;;5051393;28;1987;-72
2023/01/05 08:51:52;;;;;;;;;;;8.10;99.90;;;;;;5051227;28;1883;-73
2023/01/05 08:54:20;;;;;;;;;;;8.10;99.90;;;;;;5052735;28;1390;-73
2023/01/05 08:56:49;;;;;;;;;;;7.90;99.90;;;;;;5053760;28;1027;-73
2023/01/05 08:59:18;;;;;;;;;;;7.90;99.90;;;;;;5052873;28;1642;-73
2023/01/05 09:01:46;;;;;;;;;;;8.00;99.90;;;;;;5053362;28;2001;-73
2023/01/05 09:04:14;;;;;;;;;;;8.00;99.90;;;;;;5053619;28;1311;-73
2023/01/05 09:06:41;;;;;;;;;;;7.90;99.90;;;;;;5052344;28;1075;-73
2023/01/05 09:09:09;;;;;;;;;;;8.00;99.90;;;;;;5052755;28;2216;-73
2023/01/05 09:11:39;;;;;;;;;;;8.00;99.90;;;;;;5055673;28;2161;-73
2023/01/05 09:14:07;;;;;;;;;;;8.00;99.90;;;;;;5051543;28;1342;-71
2023/01/05 09:16:36;;;;;;;;;;;8.00;99.90;;;;;;5052268;28;1105;-71
2023/01/05 09:19:24;;;;;;;;;;;7.90;99.90;;;;;;5052115;28;2101;-72
2023/01/05 09:21:52;;;;;;;;;;;7.80;99.90;;;;;;5052952;28;1995;-72
2023/01/05 09:24:20;;;;;;;;;;;7.80;99.90;;;;;;5052790;28;1311;-73
2023/01/05 09:26:47;;;;;;;;;;;7.90;99.90;;;;;;5051910;28;1104;-70
2023/01/05 09:29:15;;;;;;;;;;;7.80;99.90;;;;;;5050931;28;2157;-72
2023/01/05 09:31:44;;;;;;;;;;;7.90;99.90;;;;;;5052954;28;1067;-70
2023/01/05 09:34:12;;;;;;;;;;;7.70;99.90;;;;;;5054309;28;1369;-72
2023/01/05 09:36:39;;;;;;;;;;;7.70;99.90;;;;;;5057067;28;1039;-72
2023/01/05 09:39:07;;;;;;;;;;;7.80;99.90;;;;;;5055608;28;1439;-71
2023/01/05 09:41:37;;;;;;;;;;;7.80;99.90;;;;;;5054867;28;1917;-71
2023/01/05 09:44:07;;;;;;;;;;;7.90;99.90;;;;;;5054607;28;1272;-72
2023/01/05 09:46:37;;;;;;;;;;;8.10;99.90;;;;;;5055684;28;1333;-71
2023/01/05 09:49:11;;;;;;;;;;;8.00;99.90;;;;;;5055950;28;1195;-71
2023/01/05 09:51:39;;;;;;;;;;;8.10;99.90;;;;;;5055253;28;1524;-72
2023/01/05 09:54:07;;;;;;;;;;;8.00;99.90;;;;;;5054893;28;1369;-71
2023/01/05 09:56:36;;;;;;;;;;;8.10;99.90;;;;;;5055262;28;1091;-71
2023/01/05 09:59:25;;;;;;;;;;;8.20;99.90;;;;;;5055571;28;1251;-72
2023/01/05 10:01:54;;;;;;;;;;;8.20;99.90;;;;;;5055352;28;2005;-72
2023/01/05 10:04:24;;;;;;;;;;;8.20;99.90;;;;;;5056003;28;1271;-72
2023/01/05 10:06:59;;;;;;;;;;;8.20;99.90;;;;;;5055788;28;2006;-70
2023/01/05 10:09:29;;;;;;;;;;;8.30;99.90;;;;;;5056268;28;2169;-71
2023/01/05 10:14:46;;;;;;;;;;;8.20;99.90;;;;;;5054187;28;1952;-69
2023/01/05 10:17:14;;;;;;;;;;;8.10;99.90;;;;;;5055504;28;1971;-71
2023/01/05 10:20:06;;;;;;;;;;;8.40;99.90;;;;;;5055817;28;1939;-69
2023/01/05 10:22:40;;;;;;;;;;;8.30;99.90;;;;;;5056255;28;2090;-74
2023/01/05 10:25:12;;;;;;;;;;;8.40;99.90;;;;;;5055087;28;2098;-72
2023/01/05 10:27:44;;;;;;;;;;;8.60;99.90;;;;;;5069962;28;2306;-75
2023/01/05 10:30:15;;;;;;;;;;;8.50;99.90;;;;;;5068894;28;2145;-75
2023/01/05 10:32:48;;;;;;;;;;;8.50;99.90;;;;;;5056549;28;1096;-75
2023/01/05 10:35:26;;;;;;;;;;;8.50;99.90;;;;;;5056379;28;1334;-76
2023/01/05 10:38:22;;;;;;;;;;;8.80;99.90;;;;;;5055483;28;1800;-77
2023/01/05 10:40:55;;;;;;;;;;;8.70;99.90;;;;;;5054698;28;1200;-76
2023/01/05 10:43:46;;;;;;;;;;;8.70;99.90;;;;;;5055097;28;2164;-76
2023/01/05 10:46:17;;;;;;;;;;;8.50;99.90;;;;;;5040235;28;1512;-81
2023/01/05 10:49:06;;;;;;;;;;;8.40;99.90;;;;;;5061412;28;1733;-78
2023/01/05 10:51:36;;;;;;;;;;;8.40;99.90;;;;;;5059598;28;1286;-76
2023/01/05 10:54:05;;;;;;;;;;;8.20;99.90;;;;;;5061285;28;1326;-80
2023/01/05 10:56:33;;;;;;;;;;;8.20;99.90;;;;;;5062809;28;1012;-78
2023/01/05 10:59:07;;;;;;;;;;;8.10;99.90;;;;;;5062786;28;1056;-77
2023/01/05 11:01:36;;;;;;;;;;;8.30;99.90;;;;;;5059581;28;1085;-77
2023/01/05 11:04:05;;;;;;;;;;;8.40;99.90;;;;;;5054527;28;1913;-74
2023/01/05 11:07:01;;;;;;;;;;;8.50;99.90;;;;;;5054250;28;1698;-74
2023/01/05 11:09:29;;;;;;;;;;;8.50;99.90;;;;;;5054490;28;2113;-74
2023/01/05 11:11:58;;;;;;;;;;;8.70;99.90;;;;;;5055021;28;1107;-74
2023/01/05 11:14:27;;;;;;;;;;;8.70;99.90;;;;;;5055116;28;1271;-74
2023/01/05 11:17:00;;;;;;;;;;;8.80;99.90;;;;;;5054584;28;1420;-76
2023/01/05 11:19:30;;;;;;;;;;;9.00;99.90;;;;;;5054167;28;1143;-75
2023/01/05 11:21:59;;;;;;;;;;;8.90;99.90;;;;;;5053888;28;1293;-74
2023/01/05 11:24:30;;;;;;;;;;;8.80;99.90;;;;;;5054946;28;1910;-74
2023/01/05 11:27:02;;;;;;;;;;;9.00;99.90;;;;;;5056083;28;1052;-74
2023/01/05 11:29:30;;;;;;;;;;;9.10;99.90;;;;;;5057491;28;1072;-74
2023/01/05 11:31:58;;;;;;;;;;;8.90;99.90;;;;;;5053030;28;1052;-70
2023/01/05 11:34:29;;;;;;;;;;;9.00;99.90;;;;;;5062828;28;1355;-72
2023/01/05 11:36:59;;;;;;;;;;;8.90;99.90;;;;;;5063313;28;1016;-71
2023/01/05 11:39:37;;;;;;;;;;;8.80;99.90;;;;;;5058739;28;1049;-71
2023/01/05 11:42:09;;;;;;;;;;;8.70;99.90;;;;;;5057469;28;1033;-70
2023/01/05 11:44:37;;;;;;;;;;;8.60;99.90;;;;;;5056006;28;1952;-71
2023/01/05 11:47:06;;;;;;;;;;;8.60;99.90;;;;;;5055114;28;2015;-73
2023/01/05 11:49:33;;;;;;;;;;;8.70;99.90;;;;;;5061446;28;1020;-73
2023/01/05 11:52:02;;;;;;;;;;;8.60;99.90;;;;;;5055886;28;1039;-71
2023/01/05 11:54:34;;;;;;;;;;;8.70;99.90;;;;;;5054918;28;1292;-71
2023/01/05 11:57:14;;;;;;;;;;;8.60;99.90;;;;;;5054283;28;2411;-72
2023/01/05 11:59:44;;;;;;;;;;;8.60;99.90;;;;;;5053315;28;2078;-71
2023/01/05 12:02:25;;;;;;;;;;;8.60;99.90;;;;;;5054203;28;1043;-71
2023/01/05 12:05:00;;;;;;;;;;;8.70;99.90;;;;;;5053570;28;1910;-70
2023/01/05 12:07:32;;;;;;;;;;;8.80;99.90;;;;;;5053108;28;1642;-71
2023/01/05 12:10:05;;;;;;;;;;;8.70;99.90;;;;;;5052880;28;1390;-72
2023/01/05 12:12:40;;;;;;;;;;;8.70;99.90;;;;;;5054230;28;1075;-71
2023/01/05 12:15:23;;;;;;;;;;;8.60;99.90;;;;;;5052422;28;1343;-71
2023/01/05 12:17:53;;;;;;;;;;;8.70;99.90;;;;;;5015937;28;1085;-70
2023/01/05 12:20:32;;;;;;;;;;;8.70;99.90;;;;;;5052075;28;1266;-71
2023/01/05 12:23:15;;;;;;;;;;;8.70;99.90;;;;;;5052981;28;2125;-72
2023/01/05 12:25:49;;;;;;;;;;;8.90;99.90;;;;;;5052640;28;1588;-76
2023/01/05 12:28:41;;;;;;;;;;;9.00;99.90;;;;;;5053247;28;1056;-75
2023/01/05 12:31:23;;;;;;;;;;;8.90;99.90;;;;;;5034926;28;1418;-75
2023/01/05 12:34:29;;;;;;;;;;;8.90;99.90;;;;;;5053224;28;1289;-74
2023/01/05 12:37:16;;;;;;;;;;;8.80;99.90;;;;;;5043482;28;2195;-74
2023/01/05 12:40:08;;;;;;;;;;;8.90;99.90;;;;;;5064854;28;1101;-74
2023/01/05 12:42:48;;;;;;;;;;;8.90;99.90;;;;;;5059536;28;925;-75
2023/01/05 12:45:29;;;;;;;;;;;8.90;99.90;;;;;;5053075;28;1906;-75
2023/01/05 12:48:00;;;;;;;;;;;8.80;99.90;;;;;;5053590;28;1167;-75
2023/01/05 12:50:32;;;;;;;;;;;8.80;99.90;;;;;;5053577;28;1032;-75
2023/01/05 12:53:07;;;;;;;;;;;8.60;99.90;;;;;;5053749;28;1140;-75
2023/01/05 12:55:38;;;;;;;;;;;8.60;99.90;;;;;;5053578;28;1338;-75
2023/01/05 12:58:10;;;;;;;;;;;8.40;99.90;;;;;;5050644;28;1501;-75
2023/01/05 13:00:41;;;;;;;;;;;8.50;99.90;;;;;;5048713;28;1128;-76
2023/01/05 13:03:13;;;;;;;;;;;8.40;99.90;;;;;;5051131;28;1898;-75
2023/01/05 13:05:43;;;;;;;;;;;8.50;99.90;;;;;;5052123;28;1347;-74
2023/01/05 13:08:16;;;;;;;;;;;8.60;99.90;;;;;;5053525;28;2125;-74
2023/01/05 13:10:48;;;;;;;;;;;8.50;99.90;;;;;;5057729;28;1020;-75
2023/01/05 13:13:18;;;;;;;;;;;8.60;99.90;;;;;;5056940;28;1104;-74
2023/01/05 13:15:52;;;;;;;;;;;8.60;99.90;;;;;;5058225;28;1327;-77
2023/01/05 13:18:21;;;;;;;;;;;8.60;99.90;;;;;;5057449;28;2082;-76
2023/01/05 13:20:51;;;;;;;;;;;8.80;99.90;;;;;;5057682;28;1024;-77
2023/01/05 13:23:20;;;;;;;;;;;8.80;99.90;;;;;;5058366;28;1985;-77
2023/01/05 13:25:52;;;;;;;;;;;8.60;99.90;;;;;;5056497;28;1709;-76
2023/01/05 13:28:21;;;;;;;;;;;8.60;99.90;;;;;;5057142;28;1073;-75
2023/01/05 13:30:56;;;;;;;;;;;8.50;99.90;;;;;;5058008;28;977;-76
2023/01/05 13:33:36;;;;;;;;;;;8.70;99.90;;;;;;5057245;28;1029;-75
2023/01/05 13:36:20;;;;;;;;;;;8.60;99.90;;;;;;5056626;28;2149;-77
2023/01/05 13:39:05;;;;;;;;;;;8.60;99.90;;;;;;5058372;28;1052;-77
2023/01/05 13:41:44;;;;;;;;;;;8.40;99.90;;;;;;5057239;28;1500;-76
2023/01/05 13:44:25;;;;;;;;;;;8.50;99.90;;;;;;5057213;28;1938;-76
2023/01/05 13:47:01;;;;;;;;;;;8.60;99.90;;;;;;5060329;28;1048;-76
2023/01/05 13:49:53;;;;;;;;;;;8.40;99.90;;;;;;5058182;28;2134;-77
2023/01/05 13:52:26;;;;;;;;;;;8.50;99.90;;;;;;5057896;28;1429;-74
2023/01/05 13:54:56;;;;;;;;;;;8.50;99.90;;;;;;5057389;28;2125;-77
2023/01/05 13:57:42;;;;;;;;;;;8.50;99.90;;;;;;5056172;28;2125;-75
2023/01/05 14:00:20;;;;;;;;;;;8.60;99.90;;;;;;5055984;28;1646;-77
2023/01/05 14:02:57;;;;;;;;;;;8.60;99.90;;;;;;5054882;28;1463;-76
2023/01/05 14:05:28;;;;;;;;;;;8.50;99.90;;;;;;5055250;28;1979;-79
2023/01/05 14:07:57;;;;;;;;;;;8.50;99.90;;;;;;5056711;28;1032;-77
2023/01/05 14:10:26;;;;;;;;;;;8.50;99.90;;;;;;5056866;28;1503;-71
2023/01/05 14:12:55;;;;;;;;;;;8.70;99.90;;;;;;5056892;28;1077;-71
2023/01/05 14:15:33;;;;;;;;;;;8.60;99.90;;;;;;5055466;28;1383;-72
2023/01/05 14:18:01;;;;;;;;;;;8.80;99.90;;;;;;5054469;28;1009;-70
2023/01/05 14:20:30;;;;;;;;;;;8.90;99.90;;;;;;5054460;28;1219;-71
2023/01/05 14:22:58;;;;;;;;;;;8.70;99.90;;;;;;5055318;28;1442;-71
2023/01/05 14:25:46;;;;;;;;;;;8.70;99.90;;;;;;5056146;28;1914;-70
2023/01/05 14:28:20;;;;;;;;;;;8.70;99.90;;;;;;5053630;28;997;-70
2023/01/05 14:30:48;;;;;;;;;;;8.70;99.90;;;;;;5056268;28;1105;-69
2023/01/05 14:33:17;;;;;;;;;;;8.80;99.90;;;;;;5054442;28;1638;-71
2023/01/05 14:35:45;;;;;;;;;;;8.80;99.90;;;;;;5054592;28;1346;-71
2023/01/05 14:38:18;;;;;;;;;;;9.00;99.90;;;;;;5056600;28;1951;-72
2023/01/05 14:40:47;;;;;;;;;;;9.00;99.90;;;;;;5054225;28;1702;-71
2023/01/05 14:43:22;;;;;;;;;;;8.90;99.90;;;;;;5055829;28;1408;-71
2023/01/05 14:46:01;;;;;;;;;;;8.70;99.90;;;;;;5050457;28;1983;-70
2023/01/05 14:48:30;;;;;;;;;;;8.70;99.90;;;;;;5053494;28;1259;-70
2023/01/05 14:51:18;;;;;;;;;;;8.70;99.90;;;;;;5061789;28;1566;-71
2023/01/05 14:53:46;;;;;;;;;;;8.80;99.90;;;;;;5063247;28;1303;-70
2023/01/05 14:56:16;;;;;;;;;;;8.60;99.90;;;;;;5055504;28;1093;-70
2023/01/05 14:58:52;;;;;;;;;;;8.60;99.90;;;;;;5055075;28;1238;-70
2023/01/05 15:01:23;;;;;;;;;;;8.60;99.90;;;;;;5054987;28;1905;-71
2023/01/05 15:03:52;;;;;;;;;;;8.50;99.90;;;;;;5056164;28;1352;-69
2023/01/05 15:06:23;;;;;;;;;;;8.50;99.90;;;;;;5053223;28;1989;-69
2023/01/05 15:09:05;;;;;;;;;;;8.30;99.90;;;;;;5055991;28;1056;-69
2023/01/05 15:11:48;;;;;;;;;;;8.30;99.90;;;;;;5055313;28;971;-69
2023/01/05 15:14:34;;;;;;;;;;;8.20;99.90;;;;;;5051978;28;1532;-70
2023/01/05 15:17:09;;;;;;;;;;;8.30;99.90;;;;;;5055245;28;1092;-71
2023/01/05 15:19:52;;;;;;;;;;;8.20;99.90;;;;;;5055003;28;1228;-72
2023/01/05 15:22:46;;;;;;;;;;;8.20;99.90;;;;;;5054526;28;1254;-70
2023/01/05 15:25:29;;;;;;;;;;;8.20;99.90;;;;;;5054064;28;1910;-70
2023/01/05 15:28:15;;;;;;;;;;;8.30;99.90;;;;;;5053854;28;1736;-71
2023/01/05 15:31:10;;;;;;;;;;;8.30;99.90;;;;;;5052796;28;1568;-71
2023/01/05 15:33:41;;;;;;;;;;;8.30;99.90;;;;;;5028972;28;1273;-70
2023/01/05 15:36:16;;;;;;;;;;;8.30;99.90;;;;;;5053370;28;1402;-70
2023/01/05 15:38:44;;;;;;;;;;;8.20;99.90;;;;;;5052334;28;1267;-71
2023/01/05 15:41:16;;;;;;;;;;;8.20;99.90;;;;;;5047665;28;1998;-71
2023/01/05 15:43:44;;;;;;;;;;;8.40;99.90;;;;;;5055637;28;1488;-70